Time;durP1;ratioP1;P1;durP2;ratioP2;P2;SDS_P1;SDS_P2;PMS_P1;PMS_P2;Temp;Humidity;BMP_temperature;BMP_pressure;BME280_temperature;BME280_humidity;BME280_pressure;Samples;Min_cycle;Max_cycle;Signal;HPM_P1;HPM_P2
2021/01/10 00:00:22;;;;;;;42.50;24.70;;;1.50;99.90;;;;;;5015832;28;20675;-74
2021/01/10 00:02:51;;;;;;;42.75;23.45;;;1.60;99.90;;;;;;5015891;28;20410;-75
2021/01/10 00:05:21;;;;;;;51.60;27.10;;;1.80;99.90;;;;;;5015367;28;20527;-74
2021/01/10 00:07:48;;;;;;;47.00;25.02;;;1.70;99.90;;;;;;5015742;28;20550;-74
2021/01/10 00:10:14;;;;;;;45.75;26.55;;;1.70;99.90;;;;;;5015517;28;20171;-74
2021/01/10 00:12:40;;;;;;;49.55;27.73;;;1.70;99.90;;;;;;5015558;28;20258;-74
2021/01/10 00:15:07;;;;;;;57.77;29.00;;;1.70;99.90;;;;;;5015077;28;20305;-76
2021/01/10 00:17:33;;;;;;;52.10;28.33;;;1.70;99.90;;;;;;5015508;28;20171;-74
2021/01/10 00:19:59;;;;;;;50.83;26.83;;;1.70;99.90;;;;;;5015126;28;20196;-76
2021/01/10 00:22:24;;;;;;;54.17;27.05;;;1.70;99.90;;;;;;5015205;28;20182;-74
2021/01/10 00:24:50;;;;;;;54.70;26.40;;;1.70;99.90;;;;;;5014948;28;20195;-74
2021/01/10 00:27:18;;;;;;;53.03;26.50;;;1.80;99.90;;;;;;5015322;28;20167;-74
2021/01/10 00:29:52;;;;;;;59.88;31.23;;;1.70;99.90;;;;;;5015230;28;20413;-76
2021/01/10 00:32:19;;;;;;;53.55;29.25;;;1.80;99.90;;;;;;5015243;28;20670;-74
2021/01/10 00:34:44;;;;;;;46.83;27.33;;;1.70;99.90;;;;;;5013530;28;20214;-74
2021/01/10 00:37:14;;;;;;;53.40;27.53;;;1.50;99.90;;;;;;5013850;28;20171;-76
2021/01/10 00:39:41;;;;;;;52.65;27.35;;;1.60;99.90;;;;;;5015239;28;20175;-75
2021/01/10 00:42:12;;;;;;;53.72;29.70;;;1.50;99.90;;;;;;5015389;28;20183;-75
2021/01/10 00:44:39;;;;;;;60.83;28.30;;;1.60;99.90;;;;;;5014554;28;20206;-75
2021/01/10 00:47:05;;;;;;;63.10;29.90;;;1.60;99.90;;;;;;5015167;28;20591;-75
2021/01/10 00:49:30;;;;;;;68.50;32.97;;;1.60;99.90;;;;;;5013651;28;20171;-74
2021/01/10 00:51:56;;;;;;;59.80;28.60;;;1.60;99.90;;;;;;5014932;28;20175;-74
2021/01/10 00:54:22;;;;;;;53.60;28.17;;;1.40;99.90;;;;;;5013182;28;20457;-75
2021/01/10 00:56:47;;;;;;;59.40;30.57;;;1.60;99.90;;;;;;5014869;28;20179;-75
2021/01/10 00:59:13;;;;;;;52.93;28.27;;;1.60;99.90;;;;;;5014676;28;20203;-74
2021/01/10 01:01:39;;;;;;;60.60;30.40;;;1.60;99.90;;;;;;5013413;28;20214;-75
2021/01/10 01:04:05;;;;;;;66.53;31.07;;;1.40;99.90;;;;;;5014307;28;20198;-74
2021/01/10 01:06:31;;;;;;;52.03;28.17;;;1.60;99.90;;;;;;5014929;28;20639;-75
2021/01/10 01:08:57;;;;;;;56.47;30.40;;;1.40;99.90;;;;;;5014478;28;20176;-76
2021/01/10 01:11:27;;;;;;;48.33;26.40;;;1.50;99.90;;;;;;5014567;28;20262;-74
2021/01/10 01:13:52;;;;;;;54.28;28.90;;;1.40;99.90;;;;;;5014197;28;20543;-76
2021/01/10 01:16:18;;;;;;;61.80;26.97;;;1.30;99.90;;;;;;5014422;28;20711;-75
2021/01/10 01:18:43;;;;;;;51.10;25.03;;;1.40;99.90;;;;;;5014394;28;20533;-74
2021/01/10 01:21:14;;;;;;;45.63;23.53;;;1.60;99.90;;;;;;5014116;28;20199;-76
2021/01/10 01:23:39;;;;;;;46.65;25.75;;;1.50;99.90;;;;;;5014088;28;20174;-74
2021/01/10 01:26:05;;;;;;;52.47;26.27;;;1.50;99.90;;;;;;5014142;28;20194;-75
2021/01/10 01:28:30;;;;;;;53.50;25.23;;;1.40;99.90;;;;;;5014247;28;20204;-75
2021/01/10 01:30:56;;;;;;;57.73;26.30;;;1.30;99.90;;;;;;5014098;28;20175;-74
2021/01/10 01:33:22;;;;;;;54.07;25.97;;;1.30;99.90;;;;;;5012343;28;20245;-75
2021/01/10 01:35:47;;;;;;;63.80;28.57;;;1.20;99.90;;;;;;5013956;28;20297;-74
2021/01/10 01:38:13;;;;;;;53.17;27.93;;;1.30;99.90;;;;;;5014325;28;20174;-75
2021/01/10 01:40:38;;;;;;;69.53;28.53;;;1.40;99.90;;;;;;5014397;28;20218;-74
2021/01/10 01:43:07;;;;;;;67.50;29.40;;;1.60;99.90;;;;;;5014309;28;20179;-74
2021/01/10 01:45:33;;;;;;;71.50;32.75;;;1.70;99.90;;;;;;5013582;28;20282;-75
2021/01/10 01:48:01;;;;;;;63.50;29.67;;;1.70;99.90;;;;;;5013914;28;20258;-75
2021/01/10 01:50:26;;;;;;;59.60;28.80;;;1.60;99.90;;;;;;5012522;28;20214;-75
2021/01/10 01:52:52;;;;;;;67.37;30.57;;;1.60;99.90;;;;;;5014067;28;20582;-74
2021/01/10 01:55:18;;;;;;;63.13;28.57;;;1.50;99.90;;;;;;5013589;28;20201;-75
2021/01/10 01:57:43;;;;;;;58.53;28.80;;;1.30;99.90;;;;;;5013986;28;20179;-73
2021/01/10 02:00:10;;;;;;;58.57;27.87;;;1.30;99.90;;;;;;5013787;28;20190;-74
2021/01/10 02:02:36;;;;;;;56.83;26.33;;;1.30;99.90;;;;;;5013733;28;20190;-74
2021/01/10 02:05:10;;;;;;;61.43;28.17;;;1.40;99.90;;;;;;5013384;28;20186;-75
2021/01/10 02:07:51;;;;;;;49.58;26.10;;;1.50;99.90;;;;;;5013619;28;20172;-74
2021/01/10 02:10:21;;;;;;;65.55;28.00;;;1.60;99.90;;;;;;5013579;28;20171;-74
2021/01/10 02:12:56;;;;;;;58.42;28.95;;;1.70;99.90;;;;;;5013560;28;20171;-74
2021/01/10 02:15:25;;;;;;;56.33;28.95;;;1.50;99.90;;;;;;5013120;28;20197;-74
2021/01/10 02:17:53;;;;;;;70.00;29.27;;;1.60;99.90;;;;;;5013622;28;20241;-75
2021/01/10 02:20:39;;;;;;;57.10;28.45;;;1.80;99.90;;;;;;5013478;28;20197;-75
2021/01/10 02:23:14;;;;;;;53.60;27.98;;;1.70;99.90;;;;;;5013432;28;20178;-75
2021/01/10 02:25:45;;;;;;;54.47;28.70;;;1.70;99.90;;;;;;5012982;28;20198;-75
2021/01/10 02:28:13;;;;;;;53.50;29.60;;;1.60;99.90;;;;;;5013420;28;20224;-75
2021/01/10 02:30:41;;;;;;;50.67;27.08;;;1.60;99.90;;;;;;5013362;28;20186;-76
2021/01/10 02:33:30;;;;;;;54.10;27.45;;;1.60;99.90;;;;;;5013350;28;20177;-75
2021/01/10 02:35:57;;;;;;;50.25;25.48;;;1.50;99.90;;;;;;5002572;28;20577;-75
2021/01/10 02:38:32;;;;;;;51.08;27.95;;;1.60;99.90;;;;;;5013372;28;20689;-73
2021/01/10 02:41:16;;;;;;;55.30;28.45;;;1.80;99.90;;;;;;5013270;28;20209;-74
2021/01/10 02:43:54;;;;;;;52.38;28.13;;;1.70;99.90;;;;;;5015063;28;20596;-74
2021/01/10 02:46:20;;;;;;;51.40;26.75;;;1.60;99.90;;;;;;5017333;28;20162;-75
2021/01/10 02:48:46;;;;;;;55.55;25.73;;;1.40;99.90;;;;;;5017506;28;20174;-74
2021/01/10 02:51:12;;;;;;;52.95;26.77;;;1.50;99.90;;;;;;5017351;28;20221;-74
2021/01/10 02:53:38;;;;;;;57.97;28.47;;;1.60;99.90;;;;;;5016859;28;20210;-75
2021/01/10 02:56:05;;;;;;;60.07;29.20;;;1.60;99.90;;;;;;5017088;28;20277;-76
2021/01/10 02:58:33;;;;;;;56.60;27.73;;;1.50;99.90;;;;;;5017087;28;20175;-75
2021/01/10 03:01:02;;;;;;;52.85;27.15;;;1.40;99.90;;;;;;5017143;28;20553;-74
2021/01/10 03:03:28;;;;;;;49.22;27.02;;;1.40;99.90;;;;;;5016722;28;20186;-75
2021/01/10 03:05:55;;;;;;;42.65;25.13;;;1.50;99.90;;;;;;5016743;28;20195;-76
2021/01/10 03:08:21;;;;;;;46.63;25.45;;;1.40;99.90;;;;;;5016821;28;20167;-75
2021/01/10 03:10:48;;;;;;;48.73;24.33;;;1.40;99.90;;;;;;5016908;28;20661;-76
2021/01/10 03:13:16;;;;;;;46.10;25.98;;;1.50;99.90;;;;;;5016844;28;20424;-74
2021/01/10 03:15:41;;;;;;;46.78;26.50;;;1.40;99.90;;;;;;5016242;28;20578;-76
2021/01/10 03:18:21;;;;;;;46.43;24.43;;;1.40;99.90;;;;;;5016719;28;20168;-76
2021/01/10 03:20:47;;;;;;;43.72;23.00;;;1.40;99.90;;;;;;5016546;28;20685;-75
2021/01/10 03:23:14;;;;;;;49.22;25.38;;;1.30;99.90;;;;;;5016595;28;20580;-75
2021/01/10 03:25:39;;;;;;;44.47;24.63;;;1.50;99.90;;;;;;5016125;28;20214;-74
2021/01/10 03:28:05;;;;;;;50.60;26.90;;;1.40;99.90;;;;;;5016355;28;20179;-75
2021/01/10 03:30:32;;;;;;;41.27;24.17;;;1.30;99.90;;;;;;5016570;28;20206;-76
2021/01/10 03:32:57;;;;;;;45.22;25.63;;;1.30;99.90;;;;;;5016302;28;20542;-75
2021/01/10 03:35:23;;;;;;;46.10;23.20;;;1.30;99.90;;;;;;5015836;28;20264;-76
2021/01/10 03:37:48;;;;;;;39.30;24.10;;;1.40;99.90;;;;;;5014992;28;20179;-75
2021/01/10 03:40:15;;;;;;;40.40;23.10;;;1.50;99.90;;;;;;5016255;28;20199;-75
2021/01/10 03:42:40;;;;;;;50.25;25.38;;;1.60;99.90;;;;;;5016437;28;20587;-76
2021/01/10 03:45:08;;;;;;;45.17;25.57;;;1.60;99.90;;;;;;5015842;28;20275;-75
2021/01/10 03:47:34;;;;;;;46.28;23.15;;;1.60;99.90;;;;;;5016188;28;20413;-75
2021/01/10 03:50:00;;;;;;;43.63;24.00;;;1.60;99.90;;;;;;5015911;28;20175;-74
2021/01/10 03:52:25;;;;;;;43.70;25.50;;;1.70;99.90;;;;;;5016015;28;20257;-75
2021/01/10 03:54:51;;;;;;;41.13;23.63;;;1.80;99.90;;;;;;5014880;28;20710;-75
2021/01/10 03:57:17;;;;;;;47.17;25.70;;;1.80;99.90;;;;;;5015907;28;20225;-76
2021/01/10 03:59:42;;;;;;;40.53;24.60;;;1.60;99.90;;;;;;5016171;28;20250;-75
2021/01/10 04:02:08;;;;;;;43.53;24.10;;;1.50;99.90;;;;;;5016065;28;20266;-75
2021/01/10 04:04:33;;;;;;;45.30;24.23;;;1.50;99.90;;;;;;5015470;28;20198;-75
2021/01/10 04:06:59;;;;;;;41.00;25.30;;;1.40;99.90;;;;;;5015952;28;20198;-75
2021/01/10 04:09:24;;;;;;;38.10;22.60;;;1.30;99.90;;;;;;5015776;28;20642;-75
2021/01/10 04:11:50;;;;;;;45.83;23.80;;;1.30;99.90;;;;;;5015745;28;20611;-74
2021/01/10 04:14:16;;;;;;;47.10;22.93;;;1.30;99.90;;;;;;5015135;28;20305;-74
2021/01/10 04:16:41;;;;;;;56.97;26.07;;;1.20;99.90;;;;;;5015478;28;20226;-75
2021/01/10 04:19:07;;;;;;;42.10;22.07;;;1.10;99.90;;;;;;5015429;28;20260;-75
2021/01/10 04:21:34;;;;;;;49.20;24.47;;;1.20;99.90;;;;;;5015490;28;20252;-75
2021/01/10 04:24:00;;;;;;;47.42;23.10;;;0.80;99.90;;;;;;5013695;28;20646;-76
2021/01/10 04:26:26;;;;;;;44.40;21.88;;;0.90;99.90;;;;;;5015206;28;20256;-76
2021/01/10 04:28:52;;;;;;;52.60;25.08;;;0.80;99.90;;;;;;5015258;28;20175;-75
2021/01/10 04:31:18;;;;;;;40.30;21.50;;;0.80;99.90;;;;;;5015476;28;20175;-74
2021/01/10 04:33:43;;;;;;;45.97;22.93;;;0.80;99.90;;;;;;5014794;28;20170;-75
2021/01/10 04:36:09;;;;;;;46.23;24.97;;;0.80;99.90;;;;;;5015114;28;20206;-74
2021/01/10 04:38:34;;;;;;;43.23;22.57;;;0.70;99.90;;;;;;5015043;28;20594;-76
2021/01/10 04:41:00;;;;;;;41.27;23.83;;;0.60;99.90;;;;;;5015093;28;20206;-75
2021/01/10 04:43:26;;;;;;;37.30;22.40;;;0.40;99.90;;;;;;5014985;28;20174;-75
2021/01/10 04:45:51;;;;;;;45.93;22.67;;;0.50;99.90;;;;;;5014613;28;20937;-75
2021/01/10 04:48:18;;;;;;;47.57;25.40;;;0.40;99.90;;;;;;5014935;28;20196;-77
2021/01/10 04:50:44;;;;;;;43.63;24.83;;;0.50;99.90;;;;;;5015101;28;20198;-75
2021/01/10 04:53:12;;;;;;;49.50;24.07;;;0.40;99.90;;;;;;5015163;28;20213;-76
2021/01/10 04:55:38;;;;;;;52.22;24.00;;;0.40;99.90;;;;;;5014546;28;20525;-75
2021/01/10 04:58:06;;;;;;;38.80;20.95;;;0.40;99.90;;;;;;5014994;28;20189;-75
2021/01/10 05:00:33;;;;;;;41.67;21.77;;;0.50;99.90;;;;;;5014764;28;20290;-74
2021/01/10 05:03:07;;;;;;;45.45;23.63;;;0.50;99.90;;;;;;5014860;28;20179;-77
2021/01/10 05:05:38;;;;;;;41.97;22.98;;;0.20;99.90;;;;;;5014275;28;20200;-75
2021/01/10 05:08:11;;;;;;;41.80;21.20;;;0.40;99.90;;;;;;5013817;28;20629;-76
2021/01/10 05:10:38;;;;;;;49.95;24.00;;;0.40;99.90;;;;;;5014416;28;20178;-75
2021/01/10 05:13:05;;;;;;;59.00;24.27;;;0.40;99.90;;;;;;5014406;28;20179;-75
2021/01/10 05:15:31;;;;;;;56.97;26.52;;;0.30;99.90;;;;;;5014139;28;20206;-75
2021/01/10 05:17:58;;;;;;;48.78;22.83;;;0.50;99.90;;;;;;5014515;28;20230;-76
2021/01/10 05:20:31;;;;;;;44.53;25.52;;;0.40;99.90;;;;;;5014254;28;20198;-75
2021/01/10 05:22:58;;;;;;;40.80;22.52;;;0.40;99.90;;;;;;5014313;28;20643;-75
2021/01/10 05:25:26;;;;;;;45.15;25.23;;;0.40;99.90;;;;;;5013921;28;20570;-75
2021/01/10 05:27:55;;;;;;;45.95;24.15;;;0.40;99.90;;;;;;5014228;28;20174;-74
2021/01/10 05:30:32;;;;;;;49.83;24.58;;;0.50;99.90;;;;;;5014248;28;20171;-76
2021/01/10 05:33:04;;;;;;;47.25;23.52;;;0.50;99.90;;;;;;5013933;28;20190;-75
2021/01/10 05:35:50;;;;;;;51.13;24.90;;;0.50;99.90;;;;;;5013736;28;20195;-76
2021/01/10 05:38:33;;;;;;;45.90;23.33;;;0.30;99.90;;;;;;5014035;28;20175;-75
2021/01/10 05:41:00;;;;;;;47.92;24.63;;;0.30;99.90;;;;;;5013796;28;20226;-76
2021/01/10 05:43:27;;;;;;;42.22;23.83;;;0.50;99.90;;;;;;5012995;28;20516;-73
2021/01/10 05:45:53;;;;;;;47.53;22.35;;;0.30;99.90;;;;;;5013821;28;20194;-75
2021/01/10 05:48:19;;;;;;;42.85;23.10;;;0.40;99.90;;;;;;5014126;28;20255;-76
2021/01/10 05:50:50;;;;;;;42.33;20.73;;;0.30;99.90;;;;;;5014043;28;20186;-76
2021/01/10 05:53:23;;;;;;;34.33;20.23;;;0.30;99.90;;;;;;5013958;28;20567;-75
2021/01/10 05:56:00;;;;;;;43.45;22.17;;;0.30;99.90;;;;;;5013592;28;20195;-74
2021/01/10 05:58:27;;;;;;;36.35;20.40;;;0.30;99.90;;;;;;5013799;28;20297;-74
2021/01/10 06:00:54;;;;;;;38.15;19.38;;;0.20;99.90;;;;;;5013647;28;20195;-77
2021/01/10 06:03:21;;;;;;;38.80;21.88;;;0.20;99.90;;;;;;5013646;28;20178;-76
2021/01/10 06:05:57;;;;;;;41.38;23.27;;;0.10;99.90;;;;;;5013595;28;20549;-76
2021/01/10 06:08:37;;;;;;;42.35;19.88;;;0.00;99.90;;;;;;5014026;28;20177;-76
2021/01/10 06:11:22;;;;;;;36.38;20.30;;;0.00;99.90;;;;;;5012584;28;20189;-76
2021/01/10 06:14:02;;;;;;;42.35;22.05;;;0.00;99.90;;;;;;5012244;28;20229;-76
2021/01/10 06:16:32;;;;;;;36.75;21.75;;;0.00;99.90;;;;;;5013583;28;20196;-77
2021/01/10 06:19:01;;;;;;;45.15;22.48;;;0.00;99.90;;;;;;5012118;28;20638;-77
2021/01/10 06:21:28;;;;;;;43.95;22.08;;;0.00;99.90;;;;;;5013397;28;20261;-75
2021/01/10 06:24:01;;;;;;;34.00;20.63;;;0.00;99.90;;;;;;5013107;28;20213;-75
2021/01/10 06:26:39;;;;;;;42.08;21.92;;;0.10;99.90;;;;;;5013583;28;20190;-75
2021/01/10 06:29:12;;;;;;;41.17;21.50;;;0.00;99.90;;;;;;5013396;28;20175;-77
2021/01/10 06:31:38;;;;;;;39.70;21.30;;;0.10;99.90;;;;;;5013327;28;20185;-77
2021/01/10 06:34:07;;;;;;;48.13;21.70;;;0.10;99.90;;;;;;5013008;28;20199;-75
2021/01/10 06:36:38;;;;;;;48.70;22.05;;;0.20;99.90;;;;;;5013321;28;20413;-77
2021/01/10 06:39:06;;;;;;;43.22;23.55;;;0.10;99.90;;;;;;5013362;28;20182;-75
2021/01/10 06:41:52;;;;;;;44.22;23.58;;;0.10;99.90;;;;;;5011913;28;20225;-75
2021/01/10 06:44:21;;;;;;;48.30;24.13;;;0.20;99.90;;;;;;5002526;28;20297;-76
2021/01/10 06:46:51;;;;;;;37.65;21.42;;;0.20;99.90;;;;;;5013411;28;20175;-77
2021/01/10 06:49:17;;;;;;;45.45;24.35;;;0.20;99.90;;;;;;5013301;28;20174;-76
2021/01/10 06:51:47;;;;;;;38.90;23.17;;;0.20;99.90;;;;;;5013163;28;20218;-75
2021/01/10 06:54:13;;;;;;;49.35;23.20;;;0.30;99.90;;;;;;5012873;28;20209;-77
2021/01/10 06:56:46;;;;;;;46.40;23.85;;;0.40;99.90;;;;;;5013400;28;20183;-76
2021/01/10 06:59:21;;;;;;;42.13;21.65;;;0.40;99.90;;;;;;5013181;28;20550;-74
2021/01/10 07:01:53;;;;;;;38.63;22.25;;;0.50;99.90;;;;;;5013224;28;20637;-76
2021/01/10 07:04:21;;;;;;;43.33;22.65;;;0.50;99.90;;;;;;5012856;28;20554;-74
2021/01/10 07:06:51;;;;;;;39.63;21.95;;;0.50;99.90;;;;;;5013407;28;20519;-73
2021/01/10 07:09:17;;;;;;;44.97;22.58;;;0.40;99.90;;;;;;5013224;28;20181;-75
2021/01/10 07:11:44;;;;;;;41.35;19.45;;;0.40;99.90;;;;;;5012896;28;20254;-76
2021/01/10 07:14:13;;;;;;;41.55;21.27;;;0.40;99.90;;;;;;5012704;28;20215;-74
2021/01/10 07:16:45;;;;;;;40.47;22.65;;;0.30;99.90;;;;;;5012936;28;20643;-75
2021/01/10 07:19:12;;;;;;;43.15;22.52;;;0.40;99.90;;;;;;5013028;28;20183;-75
2021/01/10 07:21:42;;;;;;;37.25;22.15;;;0.20;99.90;;;;;;5012728;28;20212;-75
2021/01/10 07:24:14;;;;;;;40.30;21.23;;;0.30;99.90;;;;;;5011302;28;20631;-74
2021/01/10 07:26:47;;;;;;;45.60;22.27;;;0.30;99.90;;;;;;5013031;28;20204;-76
2021/01/10 07:29:35;;;;;;;33.95;21.10;;;0.40;99.90;;;;;;5012920;28;20216;-73
2021/01/10 07:32:00;;;;;;;36.03;21.85;;;0.50;99.90;;;;;;5016332;28;20163;-75
2021/01/10 07:34:30;;;;;;;42.63;23.50;;;0.40;99.90;;;;;;5016093;28;20689;-75
2021/01/10 07:36:57;;;;;;;42.78;22.90;;;0.50;99.90;;;;;;5016311;28;20573;-76
2021/01/10 07:39:28;;;;;;;44.10;25.95;;;0.60;99.90;;;;;;5016312;28;20542;-74
2021/01/10 07:42:15;;;;;;;45.47;27.77;;;0.50;99.90;;;;;;5015935;28;20205;-74
2021/01/10 07:44:51;;;;;;;57.63;27.20;;;0.50;99.90;;;;;;5015880;28;20248;-74
2021/01/10 07:47:38;;;;;;;44.65;23.65;;;0.50;99.90;;;;;;5016391;28;20174;-76
2021/01/10 07:50:10;;;;;;;42.25;25.38;;;0.50;99.90;;;;;;5015893;28;20690;-74
2021/01/10 07:52:42;;;;;;;44.78;23.40;;;0.60;99.90;;;;;;5014899;28;20202;-75
2021/01/10 07:55:19;;;;;;;37.13;23.08;;;0.60;99.90;;;;;;5015935;28;20213;-75
2021/01/10 07:57:50;;;;;;;34.95;21.75;;;0.60;99.90;;;;;;5016035;28;20166;-76
2021/01/10 08:00:17;;;;;;;38.25;21.98;;;0.60;99.90;;;;;;5015875;28;20206;-73
2021/01/10 08:03:00;;;;;;;38.65;21.50;;;0.60;99.90;;;;;;5014665;28;20178;-74
2021/01/10 08:05:37;;;;;;;43.45;25.15;;;0.60;99.90;;;;;;5015739;28;20541;-75
2021/01/10 08:08:11;;;;;;;35.28;23.70;;;0.60;99.90;;;;;;5015651;28;20590;-74
2021/01/10 08:10:50;;;;;;;36.63;22.40;;;0.60;99.90;;;;;;5015977;28;20221;-75
2021/01/10 08:13:46;;;;;;;38.85;23.52;;;0.70;99.90;;;;;;5016245;28;20678;-73
2021/01/10 08:16:30;;;;;;;44.88;25.08;;;0.90;99.90;;;;;;5015513;28;20213;-75
2021/01/10 08:19:04;;;;;;;44.15;23.27;;;0.70;99.90;;;;;;5015773;28;20669;-75
2021/01/10 08:21:30;;;;;;;37.30;23.20;;;0.70;99.90;;;;;;5015550;28;20209;-74
2021/01/10 08:23:57;;;;;;;38.88;23.98;;;0.80;99.90;;;;;;5015145;28;20179;-74
2021/01/10 08:26:23;;;;;;;43.03;27.55;;;0.80;99.90;;;;;;5015390;28;20214;-74
2021/01/10 08:28:54;;;;;;;54.33;26.33;;;0.80;99.90;;;;;;5014140;28;20615;-73
2021/01/10 08:31:28;;;;;;;45.10;25.20;;;0.90;99.90;;;;;;5015317;28;20414;-75
2021/01/10 08:34:00;;;;;;;43.35;23.95;;;0.90;99.90;;;;;;5014871;28;20544;-75
2021/01/10 08:36:27;;;;;;;39.33;25.17;;;1.00;99.90;;;;;;5015114;28;20194;-74
2021/01/10 08:38:57;;;;;;;50.45;25.70;;;1.20;99.90;;;;;;5015279;28;20262;-75
2021/01/10 08:41:35;;;;;;;42.05;24.63;;;1.20;99.90;;;;;;5014921;28;20203;-75
2021/01/10 08:44:11;;;;;;;43.38;25.90;;;1.30;99.90;;;;;;5013491;28;20171;-74
2021/01/10 08:46:42;;;;;;;42.70;25.92;;;1.40;99.90;;;;;;5015029;28;20167;-75
2021/01/10 08:49:07;;;;;;;49.42;25.90;;;1.40;99.90;;;;;;5015081;28;20679;-75
2021/01/10 08:51:37;;;;;;;45.67;26.57;;;1.40;99.90;;;;;;5015159;28;20270;-75
2021/01/10 08:54:10;;;;;;;53.53;27.27;;;1.30;99.90;;;;;;5014487;28;20219;-73
2021/01/10 08:56:37;;;;;;;61.70;30.75;;;1.50;99.90;;;;;;5014745;28;20180;-73
2021/01/10 08:59:04;;;;;;;46.55;28.15;;;1.70;99.90;;;;;;5014690;28;20188;-74
2021/01/10 09:01:29;;;;;;;47.60;28.40;;;1.60;99.90;;;;;;5008737;28;20208;-75
2021/01/10 09:04:06;;;;;;;51.00;28.33;;;1.50;99.90;;;;;;5013330;28;20247;-74
2021/01/10 09:07:11;;;;;;;50.38;26.90;;;1.40;99.90;;;;;;5013869;28;20411;-73
2021/01/10 09:09:57;;;;;;;40.50;24.13;;;1.40;99.90;;;;;;4992266;28;20268;-73
2021/01/10 09:12:38;;;;;;;41.38;23.77;;;1.50;99.90;;;;;;5010729;28;20242;-73
2021/01/10 09:15:16;;;;;;;44.70;25.42;;;1.40;99.90;;;;;;5014222;28;20220;-73
2021/01/10 09:17:46;;;;;;;40.92;24.35;;;1.60;99.90;;;;;;5013213;28;20172;-73
2021/01/10 09:20:17;;;;;;;40.28;26.90;;;1.70;99.90;;;;;;5014325;28;20172;-73
2021/01/10 09:22:43;;;;;;;41.30;27.30;;;1.60;99.90;;;;;;5013595;28;20211;-75
2021/01/10 09:25:14;;;;;;;50.13;28.87;;;1.60;99.90;;;;;;5011903;28;20216;-74
2021/01/10 09:28:19;;;;;;;40.97;24.85;;;1.60;99.90;;;;;;5014435;28;20757;-74
2021/01/10 09:30:56;;;;;;;38.55;24.83;;;1.80;99.90;;;;;;5013468;28;20297;-73
2021/01/10 09:33:29;;;;;;;43.72;25.60;;;1.90;99.90;;;;;;5014362;28;20182;-78
2021/01/10 09:35:57;;;;;;;42.75;25.55;;;2.00;99.90;;;;;;5013901;28;20203;-74
2021/01/10 09:38:28;;;;;;;42.88;25.13;;;1.90;99.90;;;;;;5014090;28;20172;-73
2021/01/10 09:41:10;;;;;;;47.95;26.35;;;1.90;99.90;;;;;;5013870;28;20188;-74
2021/01/10 09:43:42;;;;;;;52.00;30.27;;;1.90;99.90;;;;;;5013808;28;20647;-74
2021/01/10 09:46:28;;;;;;;54.97;33.05;;;1.80;99.90;;;;;;5013840;28;20200;-74
2021/01/10 09:49:03;;;;;;;48.05;27.45;;;1.90;99.90;;;;;;5013713;28;20189;-73
2021/01/10 09:51:43;;;;;;;48.42;27.70;;;2.00;99.90;;;;;;5014083;28;20186;-74
2021/01/10 09:54:18;;;;;;;54.78;28.35;;;2.20;99.90;;;;;;5012979;28;20690;-74
2021/01/10 09:56:46;;;;;;;54.55;29.75;;;2.10;99.90;;;;;;5012644;28;20189;-73
2021/01/10 09:59:46;;;;;;;53.88;31.85;;;2.00;99.90;;;;;;5013631;28;20181;-74
2021/01/10 10:02:38;;;;;;;52.05;29.38;;;1.90;99.90;;;;;;5012544;28;20234;-74
2021/01/10 10:05:22;;;;;;;44.60;28.08;;;1.90;99.90;;;;;;5012025;28;20212;-74
2021/01/10 10:07:59;;;;;;;51.58;27.92;;;1.90;99.90;;;;;;5012334;28;20183;-74
2021/01/10 10:10:29;;;;;;;54.72;29.23;;;2.00;99.90;;;;;;5013618;28;20185;-75
2021/01/10 10:13:01;;;;;;;50.10;28.10;;;2.10;99.90;;;;;;5012263;28;20232;-75
2021/01/10 10:15:43;;;;;;;53.65;27.88;;;2.10;99.90;;;;;;5013151;28;20311;-74
2021/01/10 10:18:15;;;;;;;57.35;28.83;;;2.20;99.90;;;;;;5012277;28;20239;-74
2021/01/10 10:20:41;;;;;;;47.50;28.30;;;2.30;99.90;;;;;;5012437;28;20274;-74
2021/01/10 10:23:12;;;;;;;42.93;23.90;;;2.20;99.90;;;;;;5013304;28;20171;-76
2021/01/10 10:25:39;;;;;;;48.88;28.30;;;2.30;99.90;;;;;;5013150;28;20205;-74
2021/01/10 10:28:05;;;;;;;48.58;28.55;;;2.30;99.90;;;;;;5013462;28;20173;-74
2021/01/10 10:30:32;;;;;;;55.75;28.58;;;2.30;99.90;;;;;;5013451;28;20178;-75
2021/01/10 10:32:58;;;;;;;44.60;27.38;;;2.40;99.90;;;;;;5013371;28;20185;-74
2021/01/10 10:35:24;;;;;;;50.87;29.40;;;2.40;99.90;;;;;;5012896;28;20203;-74
2021/01/10 10:37:50;;;;;;;55.53;31.17;;;2.40;99.90;;;;;;5013425;28;20413;-75
2021/01/10 10:40:17;;;;;;;53.45;27.50;;;2.60;99.90;;;;;;5013206;28;20200;-74
2021/01/10 10:42:43;;;;;;;53.95;28.58;;;2.70;99.90;;;;;;5013282;28;20181;-74
2021/01/10 10:45:09;;;;;;;49.63;27.20;;;2.70;99.90;;;;;;5012728;28;20190;-75
2021/01/10 10:47:35;;;;;;;51.47;29.15;;;2.70;99.90;;;;;;5011894;28;20174;-75
2021/01/10 10:50:02;;;;;;;49.10;26.07;;;2.80;99.90;;;;;;5013218;28;20177;-73
2021/01/10 10:52:28;;;;;;;56.83;27.85;;;2.70;99.90;;;;;;5013412;28;20408;-74
2021/01/10 10:54:53;;;;;;;45.47;28.07;;;2.70;99.90;;;;;;5012884;28;20210;-74
2021/01/10 10:57:19;;;;;;;46.13;26.70;;;2.80;99.90;;;;;;5011720;28;20276;-75
2021/01/10 10:59:44;;;;;;;48.60;28.00;;;3.00;99.90;;;;;;5011947;28;20189;-75
2021/01/10 11:02:11;;;;;;;47.63;27.30;;;3.10;99.90;;;;;;5013072;28;20301;-75
2021/01/10 11:04:47;;;;;;;41.58;26.15;;;3.00;99.90;;;;;;5013380;28;20207;-75
2021/01/10 11:07:14;;;;;;;45.78;28.00;;;3.00;99.90;;;;;;5017233;28;20173;-76
2021/01/10 11:09:40;;;;;;;42.75;26.42;;;3.20;99.90;;;;;;5017003;28;20183;-76
2021/01/10 11:12:10;;;;;;;48.38;27.60;;;3.20;99.90;;;;;;5016916;28;20185;-76
2021/01/10 11:14:36;;;;;;;39.88;27.02;;;3.20;99.90;;;;;;5015008;28;20674;-76
2021/01/10 11:17:08;;;;;;;39.97;25.83;;;3.30;99.90;;;;;;5016865;28;20186;-76
2021/01/10 11:19:34;;;;;;;46.88;25.35;;;3.30;99.90;;;;;;5016727;28;20503;-76
2021/01/10 11:22:03;;;;;;;45.10;25.48;;;3.30;99.90;;;;;;5015261;28;20245;-76
2021/01/10 11:24:29;;;;;;;45.92;25.77;;;3.30;99.90;;;;;;5016277;28;20218;-76
2021/01/10 11:26:55;;;;;;;43.25;24.77;;;3.40;99.90;;;;;;5016496;28;20176;-77
2021/01/10 11:29:21;;;;;;;48.50;26.53;;;3.50;99.90;;;;;;5016432;28;20251;-76
2021/01/10 11:31:49;;;;;;;48.60;24.00;;;3.50;99.90;;;;;;5016478;28;20428;-76
2021/01/10 11:34:16;;;;;;;45.75;24.23;;;3.50;99.90;;;;;;5015930;28;20440;-76
2021/01/10 11:36:44;;;;;;;42.95;26.02;;;3.40;99.90;;;;;;5016527;28;20180;-75
2021/01/10 11:39:11;;;;;;;45.65;26.27;;;3.50;99.90;;;;;;5016436;28;20173;-75
2021/01/10 11:41:42;;;;;;;43.33;22.70;;;3.40;99.90;;;;;;5016144;28;20556;-76
2021/01/10 11:44:07;;;;;;;42.38;26.05;;;3.40;99.90;;;;;;5015832;28;20191;-75
2021/01/10 11:46:33;;;;;;;39.27;24.40;;;3.60;99.90;;;;;;5016162;28;20266;-76
2021/01/10 11:48:59;;;;;;;36.50;23.07;;;3.60;99.90;;;;;;5016058;28;20171;-76
2021/01/10 11:51:25;;;;;;;41.00;24.53;;;3.60;99.90;;;;;;5016268;28;20178;-76
2021/01/10 11:53:51;;;;;;;47.83;26.35;;;3.70;99.90;;;;;;5015497;28;20167;-76
2021/01/10 11:56:17;;;;;;;44.90;25.30;;;3.70;99.90;;;;;;5016068;28;20183;-76
2021/01/10 11:58:43;;;;;;;42.27;23.70;;;3.80;99.90;;;;;;5016061;28;20179;-76
2021/01/10 12:01:09;;;;;;;46.08;24.63;;;3.80;99.90;;;;;;5015936;28;20202;-75
2021/01/10 12:03:36;;;;;;;45.42;23.02;;;3.80;99.90;;;;;;5015783;28;20233;-77
2021/01/10 12:06:03;;;;;;;43.28;24.33;;;3.80;99.90;;;;;;5015829;28;20222;-76
2021/01/10 12:08:29;;;;;;;47.53;22.25;;;3.80;99.90;;;;;;5015905;28;20179;-76
2021/01/10 12:10:55;;;;;;;39.70;21.48;;;3.80;99.90;;;;;;5015833;28;20199;-76
2021/01/10 12:13:21;;;;;;;40.08;21.95;;;3.90;99.90;;;;;;5015743;28;20206;-76
2021/01/10 12:15:48;;;;;;;36.03;21.40;;;3.90;99.90;;;;;;5013299;28;20226;-76
2021/01/10 12:18:14;;;;;;;34.97;19.80;;;3.90;99.90;;;;;;5015604;28;20787;-75
2021/01/10 12:20:40;;;;;;;39.53;22.65;;;3.90;99.90;;;;;;5015846;28;20213;-75
2021/01/10 12:23:07;;;;;;;32.92;20.23;;;4.00;99.90;;;;;;5015535;28;20166;-75
2021/01/10 12:25:33;;;;;;;36.17;20.50;;;4.00;99.90;;;;;;5015249;28;20221;-74
2021/01/10 12:27:59;;;;;;;34.03;18.40;;;4.10;99.90;;;;;;5015605;28;20170;-75
2021/01/10 12:30:25;;;;;;;35.53;19.35;;;4.10;99.90;;;;;;5015363;28;20186;-75
2021/01/10 12:32:52;;;;;;;30.05;18.17;;;4.10;99.90;;;;;;5015635;28;20593;-75
2021/01/10 12:35:20;;;;;;;33.55;18.40;;;4.00;99.90;;;;;;5014924;28;20194;-75
2021/01/10 12:37:48;;;;;;;33.42;18.58;;;4.00;99.90;;;;;;5015503;28;20190;-75
2021/01/10 12:40:15;;;;;;;30.55;18.83;;;4.10;99.90;;;;;;5014997;28;20233;-76
2021/01/10 12:42:42;;;;;;;32.55;18.02;;;4.10;99.90;;;;;;5015179;28;20179;-75
2021/01/10 12:45:10;;;;;;;29.38;17.48;;;4.20;99.90;;;;;;5014772;28;20205;-75
2021/01/10 12:47:38;;;;;;;30.67;18.63;;;4.30;99.90;;;;;;5015037;28;20206;-75